YPPH/PER METAR and TAF weather

Enter ICAO airport designator
Station Type Date Time Source
YPPH METAR 2022/01/25 04:30 UTC NOAA

YPPH 250430Z 10016KT CAVOK 28/11 Q1008


Station Type Date Time Source
YPPH Decoded METAR 2022/01/25 04:30 UTC NOAA

Belmont Perth Airport , Australia (YPPH) 31-56S 115-57E 29M
Jan 24, 2022 - 11:30 PM EST / 2022.01.25 0430 UTC
Wind: from the E (100 degrees) at 18 MPH (16 KT):0
Visibility: greater than 7 mile(s):0
Temperature: 82 F (28 C)
Dew Point: 51 F (11 C)
Relative Humidity: 34%
Pressure (altimeter): 29.77 in. Hg (1008 hPa)
ob: YPPH 250430Z 10016KT CAVOK 28/11 Q1008
cycle: 4

Station Type Date Time Source
YPPH TAF 2022/01/25 04:42 UTC NOAA

TAF
AMD TAF
AMD YPPH 250439Z 2504/2606 11014KT CAVOK
FM251100 17008KT CAVOK
BECMG 2515/2516 12015G25KT CAVOK
FM252000 12012KT CAVOK
FM260530 24014KT CAVOK

Example: see airport list